createdAt,value
2023-01-20T00:01:26.393Z,15.75
2023-01-20T00:03:54.852Z,15.95
2023-01-20T00:06:22.554Z,15.95
2023-01-20T00:08:53.453Z,14.73
2023-01-20T00:11:21.334Z,15.23
2023-01-20T00:13:48.625Z,15.25
2023-01-20T00:16:15.780Z,15.60
2023-01-20T00:18:42.723Z,15.80
2023-01-20T00:21:12.427Z,18.15
2023-01-20T00:23:40.915Z,16.92
2023-01-20T00:26:09.929Z,16.13
2023-01-20T00:28:36.979Z,16.42
2023-01-20T00:31:19.097Z,18.23
2023-01-20T00:33:47.661Z,16.73
2023-01-20T00:36:16.187Z,19.60
2023-01-20T00:38:43.013Z,21.20
2023-01-20T00:41:10.661Z,20.10
2023-01-20T00:43:37.587Z,21.55
2023-01-20T00:46:05.961Z,20.73
2023-01-20T00:48:33.516Z,21.23
2023-01-20T00:51:00.552Z,20.83
2023-01-20T00:53:27.667Z,21.38
2023-01-20T00:55:54.630Z,21.65
2023-01-20T00:58:21.772Z,21.83
2023-01-20T01:00:50.396Z,21.13
2023-01-20T01:03:18.045Z,21.98
2023-01-20T01:05:45.936Z,19.23
2023-01-20T01:08:13.371Z,20.40
2023-01-20T01:10:40.727Z,19.80
2023-01-20T01:13:08.084Z,20.52
2023-01-20T01:15:35.419Z,23.15
2023-01-20T01:18:02.992Z,21.88
2023-01-20T01:20:29.840Z,21.05
2023-01-20T01:22:57.185Z,20.08
2023-01-20T01:25:24.063Z,20.83
2023-01-20T01:27:51.011Z,23.20
2023-01-20T01:30:18.044Z,22.48
2023-01-20T01:32:45.051Z,22.90
2023-01-20T01:35:12.418Z,20.73
2023-01-20T01:37:39.630Z,20.63
2023-01-20T01:40:07.207Z,21.05
2023-01-20T01:42:34.111Z,21.58
2023-01-20T01:45:13.778Z,20.83
2023-01-20T01:47:46.291Z,18.92
2023-01-20T01:50:20.532Z,20.23
2023-01-20T01:52:52.932Z,19.90
2023-01-20T01:55:22.366Z,21.02
2023-01-20T01:57:49.954Z,20.50
2023-01-20T02:00:17.019Z,20.92
2023-01-20T02:02:45.481Z,20.23
2023-01-20T02:05:14.952Z,22.02
2023-01-20T02:07:45.697Z,21.25
2023-01-20T02:10:13.578Z,21.08
2023-01-20T02:12:42.025Z,22.38
2023-01-20T02:15:09.454Z,21.10
2023-01-20T02:17:58.043Z,22.00
2023-01-20T02:20:34.587Z,22.42
2023-01-20T02:23:21.061Z,22.85
2023-01-20T02:26:15.564Z,23.45
2023-01-20T02:29:18.470Z,22.88
2023-01-20T02:32:03.476Z,22.23
2023-01-20T02:34:36.571Z,24.27
2023-01-20T02:37:13.411Z,23.55
2023-01-20T02:39:44.333Z,24.08
2023-01-20T02:42:20.640Z,24.27
2023-01-20T02:45:14.809Z,23.80
2023-01-20T02:47:52.634Z,24.90
2023-01-20T02:50:24.234Z,23.08
2023-01-20T02:52:58.537Z,23.15
2023-01-20T02:55:30.947Z,24.63
2023-01-20T02:58:04.645Z,23.13
2023-01-20T03:00:48.945Z,22.23
2023-01-20T03:03:19.661Z,21.92
2023-01-20T03:05:52.684Z,23.80
2023-01-20T03:08:22.093Z,22.60
2023-01-20T03:10:51.518Z,23.10
2023-01-20T03:13:36.651Z,21.83
2023-01-20T03:16:10.987Z,21.10
2023-01-20T03:18:39.328Z,20.35
2023-01-20T03:21:08.718Z,22.63
2023-01-20T03:23:39.259Z,22.75
2023-01-20T03:26:10.412Z,21.98
2023-01-20T03:28:37.535Z,21.92
2023-01-20T03:31:34.876Z,22.00
2023-01-20T03:34:06.311Z,23.10
2023-01-20T03:36:34.378Z,21.35
2023-01-20T03:39:01.345Z,23.77
2023-01-20T03:41:37.383Z,23.65
2023-01-20T03:44:12.670Z,22.75
2023-01-20T03:46:47.709Z,22.50
2023-01-20T03:49:33.173Z,27.88
2023-01-20T03:52:05.825Z,29.90
2023-01-20T03:54:44.246Z,26.48
2023-01-20T03:57:25.267Z,28.25
2023-01-20T03:59:53.482Z,30.55
2023-01-20T04:02:21.766Z,32.53
2023-01-20T04:04:51.011Z,32.65
2023-01-20T04:07:22.335Z,31.05
2023-01-20T04:09:54.044Z,28.77
2023-01-20T04:12:21.001Z,31.65
2023-01-20T04:14:47.888Z,33.88
2023-01-20T04:17:15.394Z,33.15
2023-01-20T04:19:42.192Z,32.20
2023-01-20T04:22:34.523Z,34.20
2023-01-20T04:25:20.171Z,32.22
2023-01-20T04:27:47.419Z,31.42
2023-01-20T04:30:14.620Z,31.55
2023-01-20T04:32:41.637Z,30.40
2023-01-20T04:35:13.193Z,27.27
2023-01-20T04:37:40.607Z,27.85
2023-01-20T04:40:08.531Z,27.35
2023-01-20T04:42:35.581Z,26.95
2023-01-20T04:45:02.339Z,27.40
2023-01-20T04:47:33.738Z,24.77
2023-01-20T04:50:00.706Z,25.27
2023-01-20T04:52:27.635Z,26.73
2023-01-20T04:54:54.411Z,26.70
2023-01-20T04:57:21.200Z,28.10
2023-01-20T04:59:47.979Z,26.00
2023-01-20T05:02:14.774Z,27.30
2023-01-20T05:04:41.747Z,26.85
2023-01-20T05:07:09.602Z,26.00
2023-01-20T05:09:36.358Z,23.75
2023-01-20T05:12:03.646Z,24.88
2023-01-20T05:14:30.394Z,24.42
2023-01-20T05:16:57.250Z,25.55
2023-01-20T05:19:24.092Z,25.55
2023-01-20T05:21:50.911Z,26.63
2023-01-20T05:24:17.676Z,25.80
2023-01-20T05:26:44.536Z,28.58
2023-01-20T05:29:11.467Z,24.95
2023-01-20T05:31:43.029Z,25.50
2023-01-20T05:34:10.779Z,24.52
2023-01-20T05:36:37.614Z,24.30
2023-01-20T05:39:04.554Z,24.25
2023-01-20T05:41:31.287Z,24.90
2023-01-20T05:43:58.139Z,25.30
2023-01-20T05:46:24.938Z,27.30
2023-01-20T05:48:51.761Z,31.77
2023-01-20T05:51:18.692Z,29.75
2023-01-20T05:53:45.554Z,29.42
2023-01-20T05:56:15.845Z,29.98
2023-01-20T05:58:42.967Z,29.33
2023-01-20T06:01:13.043Z,28.80
2023-01-20T06:03:40.223Z,28.75
2023-01-20T06:06:14.245Z,29.05
2023-01-20T06:08:41.724Z,26.75
2023-01-20T06:11:08.676Z,28.00
2023-01-20T06:13:36.052Z,28.88
2023-01-20T06:16:03.810Z,29.20
2023-01-20T06:18:33.615Z,30.25
2023-01-20T06:21:00.525Z,30.70
2023-01-20T06:23:27.985Z,30.98
2023-01-20T06:26:03.140Z,29.45
2023-01-20T06:28:30.523Z,27.50
2023-01-20T06:31:05.463Z,24.08
2023-01-20T06:33:33.328Z,33.47
2023-01-20T06:36:00.798Z,30.20
2023-01-20T06:38:31.012Z,29.02
2023-01-20T06:40:59.881Z,27.63
2023-01-20T06:43:29.142Z,24.00
2023-01-20T06:46:04.875Z,25.80
2023-01-20T06:48:32.569Z,23.88
2023-01-20T06:51:04.614Z,24.23
2023-01-20T06:53:31.670Z,26.92
2023-01-20T06:55:59.907Z,28.77
2023-01-20T06:58:30.793Z,24.13
2023-01-20T07:00:58.911Z,22.65
2023-01-20T07:03:25.884Z,27.17
2023-01-20T07:06:02.181Z,27.95
2023-01-20T07:08:29.573Z,24.20
2023-01-20T07:10:56.773Z,24.25
2023-01-20T07:13:23.700Z,24.20
2023-01-20T07:15:50.642Z,25.73
2023-01-20T07:18:17.501Z,29.17
2023-01-20T07:20:44.376Z,27.77
2023-01-20T07:23:11.313Z,25.77
2023-01-20T07:25:39.653Z,24.13
2023-01-20T07:28:06.506Z,24.77
2023-01-20T07:30:33.620Z,23.85
2023-01-20T07:33:00.473Z,23.05
2023-01-20T07:35:27.319Z,22.35
2023-01-20T07:37:54.151Z,21.48
2023-01-20T07:40:21.326Z,19.60
2023-01-20T07:42:48.122Z,22.35
2023-01-20T07:45:16.342Z,23.35
2023-01-20T07:47:43.417Z,21.85
2023-01-20T07:50:10.663Z,21.00
2023-01-20T07:52:37.494Z,19.50
2023-01-20T07:55:04.614Z,19.05
2023-01-20T07:57:31.371Z,18.20
2023-01-20T07:59:58.141Z,18.80
2023-01-20T08:02:24.923Z,18.40
2023-01-20T08:04:51.756Z,18.00
2023-01-20T08:07:18.541Z,22.20
2023-01-20T08:09:46.008Z,19.52
2023-01-20T08:12:12.810Z,17.25
2023-01-20T08:14:39.568Z,18.05
2023-01-20T08:17:06.634Z,17.73
2023-01-20T08:19:33.385Z,17.83
2023-01-20T08:22:00.147Z,27.90
2023-01-20T08:24:26.959Z,24.95
2023-01-20T08:26:53.754Z,19.33
2023-01-20T08:29:20.475Z,17.98
2023-01-20T08:31:47.343Z,17.58
2023-01-20T08:34:14.703Z,15.95
2023-01-20T08:36:42.207Z,18.33
2023-01-20T08:39:12.209Z,19.35
2023-01-20T08:41:41.614Z,17.27
2023-01-20T08:44:09.629Z,18.02
2023-01-20T08:46:40.497Z,16.83
2023-01-20T08:49:14.379Z,16.83
2023-01-20T08:51:41.839Z,22.98
2023-01-20T08:54:09.136Z,25.20
2023-01-20T08:56:36.882Z,24.23
2023-01-20T08:59:04.655Z,19.77
2023-01-20T09:01:37.792Z,16.65
2023-01-20T09:04:07.068Z,18.30
2023-01-20T09:06:39.149Z,16.60
2023-01-20T09:09:06.053Z,16.05
2023-01-20T09:11:33.019Z,17.35
2023-01-20T09:13:59.867Z,16.88
2023-01-20T09:16:26.812Z,15.05
2023-01-20T09:18:53.592Z,14.23
2023-01-20T09:21:20.393Z,13.73
2023-01-20T09:23:48.326Z,12.85
2023-01-20T09:26:29.590Z,11.63
2023-01-20T09:29:08.954Z,11.20
2023-01-20T09:31:58.219Z,10.23
2023-01-20T09:34:29.369Z,10.57
2023-01-20T09:36:58.015Z,10.48
2023-01-20T09:39:43.694Z,12.32
2023-01-20T09:43:14.823Z,13.00
2023-01-20T09:46:00.749Z,15.52
2023-01-20T09:49:16.105Z,13.27
2023-01-20T09:52:08.136Z,8.57
2023-01-20T09:54:47.634Z,9.15
2023-01-20T09:57:15.105Z,7.50
2023-01-20T09:59:50.703Z,9.27
2023-01-20T10:02:28.317Z,8.10
2023-01-20T10:05:00.399Z,8.43
2023-01-20T10:07:39.583Z,8.63
2023-01-20T10:10:20.810Z,9.60
2023-01-20T10:12:53.461Z,8.38
2023-01-20T10:15:29.351Z,6.72
2023-01-20T10:18:09.328Z,6.85
2023-01-20T10:20:46.802Z,6.40
2023-01-20T10:23:43.930Z,5.97
2023-01-20T10:26:18.869Z,6.00
2023-01-20T10:28:57.766Z,5.82
2023-01-20T10:31:28.577Z,5.35
2023-01-20T10:34:07.472Z,6.30
2023-01-20T10:36:34.961Z,6.40
2023-01-20T10:39:13.429Z,6.10
2023-01-20T10:41:49.046Z,5.47
2023-01-20T10:44:16.618Z,5.35
2023-01-20T10:47:07.013Z,5.38
2023-01-20T10:49:36.860Z,3.85
2023-01-20T10:52:40.163Z,3.75
2023-01-20T10:55:33.183Z,2.83
2023-01-20T10:58:04.852Z,4.30
2023-01-20T11:00:33.167Z,8.20
2023-01-20T11:03:02.268Z,4.10
2023-01-20T11:05:31.922Z,4.03
2023-01-20T11:08:02.049Z,4.07
2023-01-20T11:10:32.267Z,3.20
2023-01-20T11:13:02.306Z,3.20
2023-01-20T11:15:36.922Z,3.28
2023-01-20T11:18:15.766Z,3.10
2023-01-20T11:21:03.426Z,3.03
2023-01-20T11:23:39.479Z,2.85
2023-01-20T11:26:21.939Z,2.50
2023-01-20T11:28:53.680Z,2.53
2023-01-20T11:31:23.276Z,2.60
2023-01-20T11:33:59.235Z,1.88
2023-01-20T11:36:27.608Z,2.22
2023-01-20T11:38:56.518Z,2.10
2023-01-20T11:41:24.960Z,2.33
2023-01-20T11:43:58.574Z,2.13
2023-01-20T11:46:31.488Z,2.90
2023-01-20T11:49:13.633Z,2.38
2023-01-20T11:51:57.421Z,2.88
2023-01-20T11:54:29.650Z,2.25
2023-01-20T11:57:07.568Z,2.60
2023-01-20T11:59:36.824Z,2.50
2023-01-20T12:02:09.797Z,2.67
2023-01-20T12:05:00.317Z,2.80
2023-01-20T12:07:46.207Z,2.53
2023-01-20T12:10:24.230Z,2.60
2023-01-20T12:12:54.467Z,2.78
2023-01-20T12:15:34.993Z,3.00
2023-01-20T12:18:12.821Z,4.07
2023-01-20T12:20:53.586Z,3.58
2023-01-20T12:23:45.679Z,3.90
2023-01-20T12:26:18.103Z,3.03
2023-01-20T12:29:12.149Z,3.60
2023-01-20T12:31:39.127Z,2.67
2023-01-20T12:34:14.461Z,3.15
2023-01-20T12:37:09.178Z,3.28
2023-01-20T12:39:54.261Z,3.30
2023-01-20T12:42:55.927Z,2.90
2023-01-20T12:45:34.635Z,3.42
2023-01-20T12:48:22.658Z,3.75
2023-01-20T12:51:16.839Z,3.95
2023-01-20T12:53:51.593Z,3.97
2023-01-20T12:56:44.116Z,4.30
2023-01-20T12:59:16.367Z,3.60
2023-01-20T13:02:21.326Z,4.13
2023-01-20T13:04:53.815Z,4.70
2023-01-20T13:07:30.659Z,3.80
2023-01-20T13:10:24.807Z,4.80
2023-01-20T13:13:09.574Z,4.53
2023-01-20T13:16:06.125Z,4.43
2023-01-20T13:19:03.452Z,3.58
2023-01-20T13:21:31.694Z,3.90
2023-01-20T13:24:01.122Z,4.47
2023-01-20T13:26:29.876Z,4.18
2023-01-20T13:28:57.909Z,4.00
2023-01-20T13:31:37.231Z,4.15
2023-01-20T13:34:22.477Z,3.58
2023-01-20T13:37:07.080Z,3.50
2023-01-20T13:39:45.744Z,3.60
2023-01-20T13:42:30.711Z,3.35
2023-01-20T13:45:12.979Z,2.97
2023-01-20T13:48:05.978Z,2.47
2023-01-20T13:50:33.980Z,2.72
2023-01-20T13:53:10.135Z,2.20
2023-01-20T13:55:44.087Z,2.13
2023-01-20T13:58:33.922Z,2.30
2023-01-20T14:01:04.385Z,2.95
2023-01-20T14:03:40.641Z,2.60
2023-01-20T14:06:28.445Z,3.58
2023-01-20T14:08:55.389Z,3.55
2023-01-20T14:11:24.690Z,3.97
2023-01-20T14:13:56.169Z,4.28
2023-01-20T14:16:28.131Z,4.07
2023-01-20T14:18:59.038Z,4.18
2023-01-20T14:21:28.996Z,3.60
2023-01-20T14:23:56.387Z,4.03
2023-01-20T14:26:26.903Z,3.78
2023-01-20T14:28:56.142Z,4.05
2023-01-20T14:31:45.862Z,3.95
2023-01-20T14:34:32.993Z,4.13
2023-01-20T14:37:17.292Z,4.10
2023-01-20T14:39:48.761Z,5.90
2023-01-20T14:42:21.220Z,4.20
2023-01-20T14:44:53.126Z,4.22
2023-01-20T14:47:22.208Z,4.30
2023-01-20T14:49:50.825Z,4.53
2023-01-20T14:52:24.327Z,4.43
2023-01-20T14:54:51.198Z,4.72
2023-01-20T14:57:21.232Z,4.18
2023-01-20T14:59:59.369Z,4.70
2023-01-20T15:02:37.524Z,4.20
2023-01-20T15:05:29.897Z,4.00
2023-01-20T15:08:12.128Z,4.35
2023-01-20T15:10:39.746Z,6.57
2023-01-20T15:13:27.060Z,7.28
2023-01-20T15:16:07.385Z,7.22
2023-01-20T15:18:34.478Z,8.63
2023-01-20T15:21:31.875Z,9.77
2023-01-20T15:24:12.846Z,15.18
2023-01-20T15:26:40.370Z,10.85
2023-01-20T15:29:27.945Z,8.90
2023-01-20T15:31:57.168Z,9.07
2023-01-20T15:34:25.925Z,10.63
2023-01-20T15:36:55.040Z,9.23
2023-01-20T15:39:30.193Z,8.93
2023-01-20T15:42:01.456Z,9.43
2023-01-20T15:44:28.272Z,10.63
2023-01-20T15:46:57.273Z,9.48
2023-01-20T15:49:25.202Z,9.82
2023-01-20T15:51:52.554Z,9.57
2023-01-20T15:54:19.389Z,10.50
2023-01-20T15:56:46.305Z,9.52
2023-01-20T15:59:14.759Z,9.98
2023-01-20T16:01:42.494Z,9.65
2023-01-20T16:04:09.966Z,11.48
2023-01-20T16:06:37.604Z,12.02
2023-01-20T16:09:19.656Z,12.35
2023-01-20T16:11:47.580Z,10.68
2023-01-20T16:14:14.524Z,10.68
2023-01-20T16:16:41.653Z,11.80
2023-01-20T16:19:14.585Z,10.57
2023-01-20T16:21:43.745Z,10.52
2023-01-20T16:24:12.549Z,12.93
2023-01-20T16:26:39.850Z,11.55
2023-01-20T16:29:09.014Z,11.85
2023-01-20T16:31:36.091Z,13.18
2023-01-20T16:34:04.463Z,13.70
2023-01-20T16:36:31.632Z,13.50
2023-01-20T16:38:59.152Z,14.27
2023-01-20T16:41:30.933Z,14.77
2023-01-20T16:43:58.555Z,14.27
2023-01-20T16:46:31.633Z,20.38
2023-01-20T16:49:03.481Z,25.95
2023-01-20T16:51:31.638Z,18.67
2023-01-20T16:53:59.449Z,17.92
2023-01-20T16:56:29.224Z,16.30
2023-01-20T16:58:57.987Z,14.95
2023-01-20T17:01:26.104Z,15.43
2023-01-20T17:03:55.531Z,14.82
2023-01-20T17:06:25.248Z,14.52
2023-01-20T17:08:57.413Z,10.48
2023-01-20T17:11:29.589Z,8.45
2023-01-20T17:13:58.282Z,8.50
2023-01-20T17:16:28.342Z,11.02
2023-01-20T17:18:58.432Z,12.18
2023-01-20T17:21:29.175Z,20.42
2023-01-20T17:23:57.850Z,15.95
2023-01-20T17:26:25.705Z,16.48
2023-01-20T17:29:04.235Z,18.60
2023-01-20T17:31:34.372Z,19.45
2023-01-20T17:34:01.261Z,17.88
2023-01-20T17:36:29.627Z,18.08
2023-01-20T17:38:57.937Z,23.50
2023-01-20T17:41:24.710Z,18.88
2023-01-20T17:43:51.665Z,23.40
2023-01-20T17:46:30.239Z,38.05
2023-01-20T17:48:58.635Z,31.50
2023-01-20T17:51:27.936Z,39.38
2023-01-20T17:53:55.143Z,20.95
2023-01-20T17:56:22.807Z,16.17
2023-01-20T17:58:50.421Z,18.05
2023-01-20T18:01:29.637Z,19.48
2023-01-20T18:04:00.721Z,18.75
2023-01-20T18:06:28.688Z,18.08
2023-01-20T18:08:57.823Z,16.80
2023-01-20T18:11:27.131Z,18.27
2023-01-20T18:13:56.062Z,22.50
2023-01-20T18:16:26.865Z,33.63
2023-01-20T18:18:58.423Z,32.55
2023-01-20T18:21:34.604Z,18.75
2023-01-20T18:24:02.445Z,19.52
2023-01-20T18:26:31.603Z,24.02
2023-01-20T18:29:04.320Z,26.13
2023-01-20T18:31:33.496Z,27.17
2023-01-20T18:34:05.918Z,28.52
2023-01-20T18:36:35.801Z,31.67
2023-01-20T18:39:07.876Z,34.90
2023-01-20T18:41:37.552Z,32.10
2023-01-20T18:44:05.533Z,25.40
2023-01-20T18:46:33.072Z,19.75
2023-01-20T18:49:00.622Z,16.48
2023-01-20T18:51:29.455Z,12.20
2023-01-20T18:53:58.107Z,10.90
2023-01-20T18:56:25.937Z,11.48
2023-01-20T18:58:54.164Z,12.02
2023-01-20T19:01:28.054Z,9.93
2023-01-20T19:03:55.469Z,11.40
2023-01-20T19:06:24.735Z,11.63
2023-01-20T19:08:52.354Z,9.77
2023-01-20T19:11:25.275Z,10.95
2023-01-20T19:13:53.456Z,10.15
2023-01-20T19:16:28.658Z,10.13
2023-01-20T19:18:57.736Z,9.05
2023-01-20T19:21:25.596Z,8.65
2023-01-20T19:23:54.724Z,9.05
2023-01-20T19:26:24.185Z,10.52
2023-01-20T19:29:02.596Z,9.90
2023-01-20T19:31:32.514Z,15.15
2023-01-20T19:33:59.473Z,12.30
2023-01-20T19:36:26.531Z,9.57
2023-01-20T19:38:53.660Z,9.77
2023-01-20T19:41:27.737Z,8.73
2023-01-20T19:43:57.218Z,9.55
2023-01-20T19:46:27.379Z,9.13
2023-01-20T19:48:57.245Z,11.38
2023-01-20T19:51:25.200Z,12.40
2023-01-20T19:53:59.920Z,13.77
2023-01-20T19:56:32.269Z,14.57
2023-01-20T19:59:00.697Z,14.93
2023-01-20T20:01:33.726Z,16.05
2023-01-20T20:04:13.433Z,18.85
2023-01-20T20:06:44.988Z,16.58
2023-01-20T20:09:19.010Z,17.67
2023-01-20T20:11:46.455Z,19.08
2023-01-20T20:14:16.310Z,19.30
2023-01-20T20:16:43.340Z,18.10
2023-01-20T20:19:12.845Z,18.42
2023-01-20T20:21:39.739Z,19.17
2023-01-20T20:24:06.913Z,20.83
2023-01-20T20:26:37.678Z,19.08
2023-01-20T20:29:06.521Z,20.58
2023-01-20T20:31:35.738Z,20.90
2023-01-20T20:34:04.759Z,20.80
2023-01-20T20:36:33.596Z,19.45
2023-01-20T20:39:02.096Z,18.92
2023-01-20T20:41:31.878Z,20.35
2023-01-20T20:44:00.755Z,18.92
2023-01-20T20:46:28.789Z,19.50
2023-01-20T20:48:59.236Z,20.83
2023-01-20T20:51:30.352Z,19.55
2023-01-20T20:53:59.971Z,20.15
2023-01-20T20:56:28.017Z,19.35
2023-01-20T20:59:02.042Z,18.63
2023-01-20T21:01:32.699Z,20.15
2023-01-20T21:04:00.603Z,21.58
2023-01-20T21:06:28.773Z,21.23
2023-01-20T21:08:56.074Z,21.90
2023-01-20T21:11:24.145Z,22.88
2023-01-20T21:13:52.404Z,20.75
2023-01-20T21:16:23.141Z,24.27
2023-01-20T21:18:56.242Z,24.35
2023-01-20T21:21:24.240Z,24.27
2023-01-20T21:23:55.771Z,24.13
2023-01-20T21:26:24.685Z,22.40
2023-01-20T21:28:51.725Z,24.55
2023-01-20T21:31:21.535Z,25.77
2023-01-20T21:33:53.443Z,24.95
2023-01-20T21:36:20.812Z,27.15
2023-01-20T21:38:47.712Z,27.40
2023-01-20T21:41:15.691Z,25.75
2023-01-20T21:44:02.493Z,27.15
2023-01-20T21:46:31.509Z,29.73
2023-01-20T21:49:16.902Z,27.08
2023-01-20T21:52:02.499Z,26.65
2023-01-20T21:54:30.815Z,26.88
2023-01-20T21:56:58.626Z,38.58
2023-01-20T21:59:26.269Z,35.72
2023-01-20T22:01:53.888Z,30.67
2023-01-20T22:04:20.920Z,31.13
2023-01-20T22:06:47.878Z,30.88
2023-01-20T22:09:14.840Z,30.23
2023-01-20T22:11:42.047Z,29.60
2023-01-20T22:14:10.158Z,29.25
2023-01-20T22:16:37.313Z,31.75
2023-01-20T22:19:04.917Z,32.60
2023-01-20T22:21:32.959Z,32.65
2023-01-20T22:24:01.655Z,34.33
2023-01-20T22:26:28.819Z,32.78
2023-01-20T22:28:55.646Z,33.35
2023-01-20T22:31:24.034Z,33.72
2023-01-20T22:33:56.142Z,32.75
2023-01-20T22:36:24.313Z,32.60
2023-01-20T22:38:52.548Z,33.72
2023-01-20T22:41:20.231Z,33.40
2023-01-20T22:43:48.247Z,32.63
2023-01-20T22:46:20.850Z,33.97
2023-01-20T22:48:47.736Z,32.40
2023-01-20T22:51:17.427Z,31.60
2023-01-20T22:53:44.651Z,33.83
2023-01-20T22:56:17.222Z,32.63
2023-01-20T22:58:45.180Z,35.33
2023-01-20T23:01:20.539Z,32.42
2023-01-20T23:03:48.194Z,35.33
2023-01-20T23:06:15.554Z,36.78
2023-01-20T23:08:42.409Z,34.85
2023-01-20T23:11:14.794Z,34.17
2023-01-20T23:13:42.781Z,34.67
2023-01-20T23:16:22.344Z,35.90
2023-01-20T23:18:53.126Z,34.92
2023-01-20T23:21:21.758Z,35.40
2023-01-20T23:23:54.250Z,34.28
2023-01-20T23:26:25.708Z,31.67
2023-01-20T23:28:53.876Z,35.70
2023-01-20T23:31:22.832Z,35.33
2023-01-20T23:33:50.491Z,34.20
2023-01-20T23:36:22.882Z,34.75
2023-01-20T23:38:50.154Z,35.67
2023-01-20T23:41:17.392Z,34.30
2023-01-20T23:43:44.301Z,34.05
2023-01-20T23:46:11.226Z,34.10
2023-01-20T23:48:39.476Z,33.15
2023-01-20T23:51:07.126Z,35.28
2023-01-20T23:53:37.538Z,35.28
2023-01-20T23:56:15.936Z,32.28
2023-01-20T23:58:43.542Z,33.40
